Time;durP1;ratioP1;P1;durP2;ratioP2;P2;SDS_P1;SDS_P2;PMS_P1;PMS_P2;Temp;Humidity;BMP_temperature;BMP_pressure;BME280_temperature;BME280_humidity;BME280_pressure;Samples;Min_cycle;Max_cycle;Signal;HPM_P1;HPM_P2
2023/09/19 00:00:19;;;;;;;3.00;2.80;;;22.20;70.50;;;;;;4960181;28;20452;-79
2023/09/19 00:02:59;;;;;;;3.00;2.80;;;22.20;70.40;;;;;;4960991;28;20130;-79
2023/09/19 00:05:27;;;;;;;3.00;2.80;;;22.30;70.60;;;;;;4962366;28;20555;-79
2023/09/19 00:07:59;;;;;;;3.05;2.85;;;22.20;70.60;;;;;;4955968;28;20038;-79
2023/09/19 00:10:26;;;;;;;2.63;2.42;;;22.20;70.50;;;;;;4951210;28;20552;-79
2023/09/19 00:12:55;;;;;;;2.95;2.53;;;22.20;70.30;;;;;;4954493;28;20172;-79
2023/09/19 00:15:24;;;;;;;2.95;2.75;;;22.20;70.60;;;;;;4959257;28;20179;-79
2023/09/19 00:17:52;;;;;;;2.92;2.72;;;22.20;70.50;;;;;;4956002;28;20118;-79
2023/09/19 00:20:18;;;;;;;2.53;2.33;;;22.20;70.30;;;;;;4958199;28;20054;-79
2023/09/19 00:22:44;;;;;;;2.65;2.45;;;22.20;70.60;;;;;;4954319;28;20121;-79
2023/09/19 00:25:10;;;;;;;2.60;2.40;;;22.20;70.60;;;;;;4957180;28;20170;-79
2023/09/19 00:27:41;;;;;;;2.92;2.70;;;22.20;70.50;;;;;;4958703;28;20066;-79
2023/09/19 00:30:08;;;;;;;2.80;2.60;;;22.20;70.50;;;;;;4967295;28;20094;-79
2023/09/19 00:32:34;;;;;;;2.42;2.33;;;22.20;70.60;;;;;;4967494;28;20174;-79
2023/09/19 00:35:00;;;;;;;2.30;2.10;;;22.20;70.70;;;;;;4968403;28;20145;-79
2023/09/19 00:37:25;;;;;;;2.70;2.60;;;22.20;70.70;;;;;;4967945;28;20046;-79
2023/09/19 00:39:52;;;;;;;2.97;2.70;;;22.20;71.40;;;;;;4962354;28;20050;-79
2023/09/19 00:42:20;;;;;;;2.85;2.42;;;22.20;70.60;;;;;;4965353;28;20062;-79
2023/09/19 00:44:47;;;;;;;2.40;2.30;;;22.20;70.60;;;;;;4966702;28;20043;-79
2023/09/19 00:47:17;;;;;;;2.40;2.20;;;22.20;70.70;;;;;;4967825;28;20070;-79
2023/09/19 00:49:43;;;;;;;2.45;2.25;;;22.20;70.80;;;;;;4963748;28;20785;-79
2023/09/19 00:52:10;;;;;;;2.38;2.15;;;22.20;70.90;;;;;;4966660;28;20070;-79
2023/09/19 00:54:36;;;;;;;2.78;2.58;;;22.20;71.00;;;;;;4961974;28;20046;-79
2023/09/19 00:57:01;;;;;;;2.45;2.35;;;22.20;70.80;;;;;;4980991;28;20139;-79
2023/09/19 00:59:27;;;;;;;2.30;2.20;;;22.20;70.90;;;;;;4982098;28;20097;-79
2023/09/19 01:01:54;;;;;;;2.40;2.20;;;22.20;70.90;;;;;;4944350;28;20075;-79
2023/09/19 01:04:20;;;;;;;2.33;2.22;;;22.20;70.90;;;;;;4965641;28;20105;-79
2023/09/19 01:06:46;;;;;;;2.25;1.90;;;22.20;71.00;;;;;;4964534;28;20449;-79
2023/09/19 01:09:11;;;;;;;2.10;2.00;;;22.20;72.00;;;;;;4966094;28;20538;-79
2023/09/19 01:11:42;;;;;;;2.58;2.38;;;22.20;71.20;;;;;;4963009;28;20204;-79
2023/09/19 01:14:39;;;;;;;2.65;2.45;;;22.20;71.20;;;;;;4950741;28;20102;-79
2023/09/19 01:17:11;;;;;;;2.97;2.72;;;22.20;71.40;;;;;;4958399;28;20532;-79
2023/09/19 01:20:05;;;;;;;2.50;2.30;;;22.20;71.30;;;;;;4962045;28;20142;-79
2023/09/19 01:22:54;;;;;;;2.25;2.05;;;22.20;71.50;;;;;;4964170;28;20129;-79
2023/09/19 01:25:34;;;;;;;2.10;1.90;;;22.20;71.30;;;;;;4979968;28;20066;-79
2023/09/19 01:28:05;;;;;;;2.33;2.00;;;22.20;71.30;;;;;;4967837;28;20125;-79
2023/09/19 01:30:32;;;;;;;2.30;2.10;;;22.20;71.20;;;;;;4964906;28;20035;-79
2023/09/19 01:32:59;;;;;;;3.05;2.28;;;22.20;71.00;;;;;;4981102;28;20057;-79
2023/09/19 01:35:24;;;;;;;2.40;2.20;;;22.20;71.10;;;;;;4968659;28;20234;-79
2023/09/19 01:37:50;;;;;;;2.00;1.90;;;22.20;71.20;;;;;;4965698;28;20121;-79
2023/09/19 01:40:17;;;;;;;1.98;1.88;;;22.20;70.90;;;;;;4964524;28;20497;-79
2023/09/19 01:42:57;;;;;;;2.47;2.28;;;22.20;71.20;;;;;;4966869;28;20263;-79
2023/09/19 01:45:27;;;;;;;1.92;1.80;;;22.20;71.10;;;;;;4982532;28;20448;-79
2023/09/19 01:47:56;;;;;;;1.88;1.77;;;22.20;70.90;;;;;;4969204;28;20551;-79
2023/09/19 01:50:40;;;;;;;1.90;1.80;;;22.20;71.10;;;;;;4972085;28;20534;-79
2023/09/19 01:53:28;;;;;;;1.90;1.80;;;22.20;71.30;;;;;;4968194;28;20051;-79
2023/09/19 01:55:53;;;;;;;2.10;2.00;;;22.20;71.20;;;;;;4970678;28;20050;-79
2023/09/19 01:58:45;;;;;;;1.90;1.80;;;22.20;71.30;;;;;;4970079;28;20043;-79
2023/09/19 02:01:12;;;;;;;1.90;1.75;;;22.20;71.50;;;;;;4968655;28;20050;-79
2023/09/19 02:03:38;;;;;;;2.05;1.88;;;22.10;72.10;;;;;;4968173;28;20039;-80
2023/09/19 02:06:05;;;;;;;2.00;1.90;;;22.20;71.40;;;;;;4964348;28;20559;-79
2023/09/19 02:08:31;;;;;;;2.00;1.90;;;22.20;71.40;;;;;;4968150;28;20061;-79
2023/09/19 02:10:56;;;;;;;1.88;1.73;;;22.20;71.30;;;;;;4968962;28;20038;-79
2023/09/19 02:13:24;;;;;;;2.20;2.00;;;22.20;71.50;;;;;;4969427;28;20031;-79
2023/09/19 02:15:50;;;;;;;1.92;1.83;;;22.20;71.40;;;;;;4967522;28;20085;-79
2023/09/19 02:18:15;;;;;;;1.92;1.83;;;22.20;71.30;;;;;;4968624;28;20058;-79
2023/09/19 02:20:41;;;;;;;2.40;2.20;;;22.20;71.40;;;;;;4968893;28;20105;-77
2023/09/19 02:23:08;;;;;;;2.20;2.00;;;22.20;71.30;;;;;;4968179;28;20027;-77
2023/09/19 02:25:33;;;;;;;2.03;1.92;;;22.20;71.40;;;;;;4969004;28;20055;-77
2023/09/19 02:28:01;;;;;;;2.38;1.90;;;22.20;71.40;;;;;;4968254;28;20061;-78
2023/09/19 02:30:26;;;;;;;1.88;1.73;;;22.20;71.40;;;;;;4969043;28;20043;-77
2023/09/19 02:32:52;;;;;;;1.77;1.67;;;22.20;71.30;;;;;;4966310;28;20078;-78
2023/09/19 02:35:19;;;;;;;2.05;1.70;;;22.20;71.10;;;;;;4969575;28;20060;-78
2023/09/19 02:37:45;;;;;;;2.22;2.00;;;22.20;71.10;;;;;;4968679;28;20046;-78
2023/09/19 02:40:20;;;;;;;2.17;1.92;;;22.20;71.10;;;;;;4966245;28;20046;-77
2023/09/19 02:42:48;;;;;;;1.77;1.65;;;22.20;71.10;;;;;;4967770;28;20051;-76
2023/09/19 02:45:14;;;;;;;1.40;1.30;;;22.20;70.90;;;;;;4967814;28;20035;-76
2023/09/19 02:47:40;;;;;;;1.70;1.60;;;22.20;71.00;;;;;;4965823;28;20189;-76
2023/09/19 02:50:06;;;;;;;1.77;1.67;;;22.20;71.10;;;;;;4969887;28;20520;-76
2023/09/19 02:52:31;;;;;;;1.65;1.42;;;22.20;71.80;;;;;;4968127;28;20031;-76
2023/09/19 02:54:57;;;;;;;1.80;1.70;;;22.20;71.10;;;;;;4967691;28;20504;-76
2023/09/19 02:57:24;;;;;;;1.85;1.75;;;22.20;71.30;;;;;;4967626;28;20497;-76
2023/09/19 02:59:49;;;;;;;1.58;1.48;;;22.20;71.40;;;;;;4966783;28;20517;-76
2023/09/19 03:02:15;;;;;;;1.55;1.45;;;22.20;71.40;;;;;;4970055;28;20054;-76
2023/09/19 03:04:41;;;;;;;1.75;1.52;;;22.30;71.60;;;;;;4968406;28;20050;-76
2023/09/19 03:07:07;;;;;;;1.98;1.80;;;22.20;71.70;;;;;;4964782;28;20070;-76
2023/09/19 03:09:32;;;;;;;1.77;1.67;;;22.30;71.80;;;;;;4969025;28;20039;-76
2023/09/19 03:11:59;;;;;;;1.55;1.45;;;22.20;72.00;;;;;;4969237;28;20043;-76
2023/09/19 03:14:25;;;;;;;1.55;1.45;;;22.20;72.10;;;;;;4965089;28;20046;-76
2023/09/19 03:16:51;;;;;;;1.50;1.40;;;22.20;72.00;;;;;;4968352;28;20042;-77
2023/09/19 03:19:17;;;;;;;1.55;1.45;;;22.30;72.20;;;;;;4969221;28;20043;-76
2023/09/19 03:21:43;;;;;;;1.75;1.65;;;22.20;71.90;;;;;;4966471;28;20090;-77
2023/09/19 03:24:08;;;;;;;1.40;1.30;;;22.30;71.90;;;;;;4968737;28;20437;-77
2023/09/19 03:26:34;;;;;;;1.50;1.40;;;22.20;71.80;;;;;;4966051;28;20062;-76
2023/09/19 03:29:00;;;;;;;1.20;1.08;;;22.20;71.90;;;;;;4969401;28;20042;-77
2023/09/19 03:31:25;;;;;;;1.38;1.27;;;22.20;71.80;;;;;;4969040;28;20050;-77
2023/09/19 03:33:51;;;;;;;1.40;1.30;;;22.20;71.80;;;;;;4968270;28;20471;-77
2023/09/19 03:36:16;;;;;;;1.30;1.20;;;22.20;71.80;;;;;;4969696;28;20043;-77
2023/09/19 03:38:42;;;;;;;1.40;1.30;;;22.30;71.80;;;;;;4968668;28;20070;-76
2023/09/19 03:41:07;;;;;;;1.80;1.70;;;22.20;72.00;;;;;;4969398;28;20035;-78
2023/09/19 03:43:33;;;;;;;1.27;1.17;;;22.20;71.90;;;;;;4967023;28;20042;-77
2023/09/19 03:46:03;;;;;;;1.10;1.00;;;22.20;71.90;;;;;;4965476;28;20070;-77
2023/09/19 03:48:29;;;;;;;1.88;1.45;;;22.20;71.80;;;;;;4968252;28;20125;-78
2023/09/19 03:50:56;;;;;;;1.20;1.10;;;22.20;71.90;;;;;;4965972;28;20185;-78
2023/09/19 03:53:22;;;;;;;1.33;1.23;;;22.20;72.70;;;;;;4967503;28;20042;-78
2023/09/19 03:55:47;;;;;;;1.38;1.27;;;22.20;71.90;;;;;;4967550;28;20030;-78
2023/09/19 03:58:13;;;;;;;1.15;1.13;;;22.20;71.70;;;;;;4967956;28;20133;-78
2023/09/19 04:00:39;;;;;;;1.27;1.13;;;22.20;71.80;;;;;;4967853;28;20042;-77
2023/09/19 04:03:06;;;;;;;1.50;1.40;;;22.20;71.80;;;;;;4967124;28;20134;-77
2023/09/19 04:05:32;;;;;;;0.90;0.90;;;22.20;71.60;;;;;;4966838;28;20058;-77
2023/09/19 04:07:58;;;;;;;1.20;1.10;;;22.20;71.60;;;;;;4964798;28;20051;-77
2023/09/19 04:10:23;;;;;;;1.63;1.33;;;22.20;71.60;;;;;;4967266;28;20444;-77
2023/09/19 04:12:55;;;;;;;1.38;1.00;;;22.20;72.30;;;;;;4967557;28;20070;-77
2023/09/19 04:15:23;;;;;;;1.17;1.08;;;22.20;72.40;;;;;;4967119;28;20042;-77
2023/09/19 04:17:50;;;;;;;1.20;1.10;;;22.20;71.50;;;;;;4966796;28;20055;-77
2023/09/19 04:20:17;;;;;;;1.30;1.20;;;22.20;71.50;;;;;;4969065;28;20086;-77
2023/09/19 04:22:43;;;;;;;0.95;0.95;;;22.20;71.60;;;;;;4966904;28;20122;-77
2023/09/19 04:25:08;;;;;;;1.20;1.10;;;22.10;71.60;;;;;;4967267;28;20137;-77
2023/09/19 04:27:34;;;;;;;0.98;0.98;;;22.10;71.60;;;;;;4967238;28;20030;-77
2023/09/19 04:30:00;;;;;;;0.88;0.88;;;22.10;71.70;;;;;;4963955;28;20497;-77
2023/09/19 04:32:29;;;;;;;1.00;1.00;;;22.10;71.60;;;;;;4968410;28;20043;-77
2023/09/19 04:34:59;;;;;;;1.05;0.95;;;22.20;71.80;;;;;;4964315;28;20047;-79
2023/09/19 04:37:25;;;;;;;1.27;1.05;;;22.10;71.70;;;;;;4962062;28;20424;-78
2023/09/19 04:39:51;;;;;;;1.27;1.15;;;22.10;72.30;;;;;;4961173;28;20046;-78
2023/09/19 04:42:17;;;;;;;2.08;1.10;;;22.10;71.60;;;;;;4965660;28;20053;-78
2023/09/19 04:44:43;;;;;;;0.60;0.60;;;22.10;71.50;;;;;;4965894;28;20524;-78
2023/09/19 04:47:08;;;;;;;0.85;0.85;;;22.10;71.40;;;;;;4964153;28;20043;-79
2023/09/19 04:49:34;;;;;;;2.08;1.10;;;22.10;71.50;;;;;;4968421;28;20567;-78
2023/09/19 04:52:00;;;;;;;1.13;0.70;;;22.20;71.50;;;;;;4967575;28;20030;-78
2023/09/19 04:54:27;;;;;;;0.80;0.80;;;22.10;71.40;;;;;;4968176;28;20101;-79
2023/09/19 04:56:52;;;;;;;1.20;1.10;;;22.20;71.40;;;;;;4965536;28;20054;-79
2023/09/19 04:59:18;;;;;;;0.98;0.95;;;22.20;71.40;;;;;;4968213;28;20414;-79
2023/09/19 05:01:43;;;;;;;0.75;0.75;;;22.20;71.50;;;;;;4963799;28;20050;-79
2023/09/19 05:04:09;;;;;;;1.17;0.93;;;22.10;71.40;;;;;;4966855;28;20504;-79
2023/09/19 05:06:35;;;;;;;0.98;0.95;;;22.10;71.60;;;;;;4966982;28;20057;-78
2023/09/19 05:09:01;;;;;;;0.90;0.77;;;22.10;71.40;;;;;;4967012;28;20066;-81
2023/09/19 05:11:26;;;;;;;2.00;1.10;;;22.10;71.40;;;;;;4963997;28;20184;-80
2023/09/19 05:13:55;;;;;;;2.45;1.25;;;22.10;65.90;;;;;;4966049;28;20571;-80
2023/09/19 05:16:21;;;;;;;1.58;1.13;;;21.70;64.70;;;;;;4965543;28;20047;-80
2023/09/19 05:18:47;;;;;;;2.80;1.20;;;21.40;65.30;;;;;;4964397;28;20146;-80
2023/09/19 05:21:13;;;;;;;1.90;1.05;;;21.10;65.90;;;;;;4965089;28;20508;-79
2023/09/19 05:23:38;;;;;;;2.35;1.27;;;20.90;65.70;;;;;;4965238;28;20050;-79
2023/09/19 05:26:05;;;;;;;3.50;1.50;;;20.90;65.10;;;;;;4961558;28;20051;-79
2023/09/19 05:28:32;;;;;;;3.50;1.67;;;20.80;65.30;;;;;;4959379;28;20054;-79
2023/09/19 05:31:00;;;;;;;2.78;1.40;;;20.80;65.20;;;;;;4958337;28;20150;-79
2023/09/19 05:33:26;;;;;;;1.90;1.15;;;20.70;65.60;;;;;;4959440;28;20043;-79
2023/09/19 05:35:53;;;;;;;2.35;1.17;;;20.60;65.70;;;;;;4960429;28;20129;-79
2023/09/19 05:38:20;;;;;;;3.53;1.30;;;20.60;65.80;;;;;;4957705;28;20054;-79
2023/09/19 05:40:45;;;;;;;2.65;1.35;;;20.40;66.60;;;;;;4960799;28;20038;-78
2023/09/19 05:43:11;;;;;;;2.38;1.02;;;20.50;66.50;;;;;;4962086;28;20412;-78
2023/09/19 05:45:37;;;;;;;3.80;1.30;;;20.40;66.50;;;;;;4958182;28;20047;-78
2023/09/19 05:48:11;;;;;;;3.83;1.20;;;20.60;66.00;;;;;;4958288;28;20521;-78
2023/09/19 05:50:37;;;;;;;2.00;1.15;;;20.60;65.70;;;;;;4965644;28;20057;-78
2023/09/19 05:53:04;;;;;;;2.45;1.08;;;20.60;65.70;;;;;;4617240;28;10000397;-78
2023/09/19 05:55:30;;;;;;;3.40;1.35;;;20.50;66.00;;;;;;4962857;28;20085;-79
2023/09/19 05:57:55;;;;;;;1.60;0.80;;;20.60;66.10;;;;;;4962628;28;20129;-79
2023/09/19 06:00:22;;;;;;;3.10;1.42;;;20.50;65.90;;;;;;4956476;28;20520;-79
2023/09/19 06:02:55;;;;;;;3.67;1.35;;;20.40;66.20;;;;;;4956473;28;20043;-78
2023/09/19 06:05:21;;;;;;;2.55;1.35;;;20.50;66.30;;;;;;4958158;28;20512;-80
2023/09/19 06:07:46;;;;;;;2.28;1.15;;;20.50;66.40;;;;;;4944082;28;20046;-79
2023/09/19 06:10:12;;;;;;;2.67;1.15;;;20.40;66.50;;;;;;4960913;28;20039;-78
2023/09/19 06:12:43;;;;;;;2.08;0.82;;;20.40;67.40;;;;;;4962029;28;20043;-78
2023/09/19 06:15:12;;;;;;;2.30;1.13;;;20.40;66.70;;;;;;4960176;28;20039;-78
2023/09/19 06:17:38;;;;;;;1.20;0.70;;;20.30;66.90;;;;;;4945121;28;20421;-78
2023/09/19 06:20:14;;;;;;;1.88;1.15;;;20.20;67.10;;;;;;4965055;28;20563;-81
2023/09/19 06:22:43;;;;;;;3.40;1.48;;;20.30;67.40;;;;;;4965568;28;20049;-80
2023/09/19 06:25:11;;;;;;;1.38;0.82;;;20.50;67.10;;;;;;4965465;28;20039;-79
2023/09/19 06:27:38;;;;;;;3.90;1.00;;;20.70;67.30;;;;;;4967980;28;20070;-80
2023/09/19 06:30:04;;;;;;;2.45;1.35;;;20.90;67.30;;;;;;4965722;28;20336;-79
2023/09/19 06:32:30;;;;;;;2.85;1.45;;;21.00;67.40;;;;;;4969231;28;20314;-80
2023/09/19 06:34:55;;;;;;;1.35;0.82;;;21.00;67.10;;;;;;4967176;28;20420;-80
2023/09/19 06:37:22;;;;;;;1.92;0.90;;;21.00;67.10;;;;;;4965533;28;20062;-79
2023/09/19 06:39:49;;;;;;;2.10;1.08;;;21.10;67.30;;;;;;4960730;28;20035;-80
2023/09/19 06:42:17;;;;;;;2.55;1.08;;;21.10;67.30;;;;;;4967151;28;20504;-79
2023/09/19 06:44:43;;;;;;;3.97;1.45;;;21.10;67.30;;;;;;4968181;28;20070;-80
2023/09/19 06:47:09;;;;;;;4.85;1.10;;;21.10;67.30;;;;;;4969159;28;20089;-79
2023/09/19 06:49:35;;;;;;;1.48;1.10;;;21.20;67.30;;;;;;4968361;28;20038;-79
2023/09/19 06:52:01;;;;;;;3.80;1.17;;;21.20;67.40;;;;;;4968106;28;20047;-79
2023/09/19 06:54:31;;;;;;;1.30;0.80;;;21.20;67.40;;;;;;4968792;28;20039;-79
2023/09/19 06:56:58;;;;;;;1.48;1.05;;;21.20;67.40;;;;;;4968814;28;20039;-80
2023/09/19 06:59:24;;;;;;;1.77;1.10;;;21.30;68.20;;;;;;4969168;28;20061;-80
2023/09/19 07:01:50;;;;;;;3.15;1.40;;;21.30;67.50;;;;;;4967334;28;20501;-79
2023/09/19 07:04:16;;;;;;;2.30;1.20;;;21.30;67.70;;;;;;4967993;28;20039;-79
2023/09/19 07:06:42;;;;;;;1.67;1.08;;;21.30;67.70;;;;;;4968374;28;20460;-79
2023/09/19 07:09:08;;;;;;;3.08;1.55;;;21.30;67.70;;;;;;4965515;28;20047;-79
2023/09/19 07:11:34;;;;;;;1.73;0.90;;;21.40;67.90;;;;;;4970116;28;20043;-79
2023/09/19 07:14:01;;;;;;;2.47;1.00;;;21.40;67.90;;;;;;4966847;28;20043;-80
2023/09/19 07:16:29;;;;;;;1.25;0.85;;;21.40;67.90;;;;;;4967047;28;20610;-80
2023/09/19 07:18:56;;;;;;;1.73;0.88;;;21.40;68.10;;;;;;4964457;28;20580;-80
2023/09/19 07:21:22;;;;;;;2.58;0.90;;;21.40;68.10;;;;;;4968197;28;20035;-79
2023/09/19 07:23:48;;;;;;;1.20;1.10;;;21.40;68.20;;;;;;4966905;28;20038;-80
2023/09/19 07:26:13;;;;;;;1.20;0.77;;;21.40;68.30;;;;;;4967740;28;20536;-79
2023/09/19 07:28:39;;;;;;;1.20;0.73;;;21.40;68.40;;;;;;4967274;28;20089;-80
2023/09/19 07:31:05;;;;;;;1.45;0.75;;;21.40;68.40;;;;;;4966758;28;20035;-79
2023/09/19 07:33:31;;;;;;;2.97;1.10;;;21.40;68.50;;;;;;4968284;28;20055;-79
2023/09/19 07:35:56;;;;;;;1.27;0.90;;;21.40;68.70;;;;;;4968285;28;20433;-80
2023/09/19 07:38:22;;;;;;;1.50;0.93;;;21.50;68.80;;;;;;4965246;28;20043;-79
2023/09/19 07:40:48;;;;;;;1.13;0.90;;;21.40;68.80;;;;;;4967332;28;20053;-79
2023/09/19 07:43:13;;;;;;;1.17;0.80;;;21.50;68.90;;;;;;4967593;28;20038;-79
2023/09/19 07:45:39;;;;;;;1.70;0.90;;;21.50;69.00;;;;;;4967850;28;20507;-80
2023/09/19 07:48:06;;;;;;;1.83;1.10;;;21.50;69.10;;;;;;4967470;28;20548;-79
2023/09/19 07:50:33;;;;;;;1.95;1.10;;;21.50;69.00;;;;;;4970249;28;20117;-79
2023/09/19 07:52:59;;;;;;;1.38;1.10;;;21.50;69.00;;;;;;4967052;28;20133;-80
2023/09/19 07:55:25;;;;;;;2.08;1.15;;;21.50;69.00;;;;;;4967740;28;20450;-79
2023/09/19 07:57:54;;;;;;;1.80;1.00;;;21.50;68.80;;;;;;4967138;28;20069;-79
2023/09/19 08:00:19;;;;;;;2.92;0.95;;;21.50;68.90;;;;;;4967342;28;20496;-79
2023/09/19 08:02:45;;;;;;;1.23;0.90;;;21.60;68.80;;;;;;4967670;28;20034;-79
2023/09/19 08:05:12;;;;;;;2.45;1.00;;;21.60;68.80;;;;;;4968253;28;20141;-79
2023/09/19 08:07:38;;;;;;;1.40;0.90;;;21.60;68.70;;;;;;4966328;28;20055;-79
2023/09/19 08:10:07;;;;;;;1.23;0.75;;;21.60;68.80;;;;;;4965927;28;20082;-79
2023/09/19 08:12:35;;;;;;;1.13;0.73;;;21.60;68.90;;;;;;4959348;28;20046;-80
2023/09/19 08:15:02;;;;;;;1.67;0.80;;;21.60;69.10;;;;;;4967305;28;20050;-79
2023/09/19 08:17:28;;;;;;;1.52;0.63;;;21.60;69.10;;;;;;4967337;28;20133;-79
2023/09/19 08:19:53;;;;;;;0.80;0.60;;;21.60;69.30;;;;;;4968142;28;20481;-79
2023/09/19 08:22:23;;;;;;;1.15;0.60;;;21.60;69.30;;;;;;4967176;28;20093;-79
2023/09/19 08:24:49;;;;;;;1.00;0.90;;;21.60;69.30;;;;;;4966265;28;20057;-79
2023/09/19 08:27:15;;;;;;;1.10;0.90;;;21.60;69.30;;;;;;4966707;28;20043;-80
2023/09/19 08:29:42;;;;;;;0.88;0.73;;;21.70;69.30;;;;;;4965503;28;20053;-79
2023/09/19 08:32:07;;;;;;;1.48;0.90;;;21.70;69.40;;;;;;4965791;28;20038;-79
2023/09/19 08:34:33;;;;;;;1.08;0.70;;;21.70;69.40;;;;;;4958260;28;20043;-79
2023/09/19 08:36:59;;;;;;;1.13;0.77;;;21.70;69.40;;;;;;4966776;28;20580;-79
2023/09/19 08:39:25;;;;;;;1.45;0.65;;;21.70;69.40;;;;;;4965487;28;20131;-79
2023/09/19 08:41:59;;;;;;;1.23;0.70;;;21.70;69.30;;;;;;4962621;28;20181;-79
2023/09/19 08:44:27;;;;;;;1.25;0.50;;;21.80;69.30;;;;;;4966565;28;20026;-79
2023/09/19 08:46:55;;;;;;;1.70;0.70;;;21.80;70.20;;;;;;4965401;28;20046;-79
2023/09/19 08:49:47;;;;;;;0.75;0.60;;;21.80;69.70;;;;;;4966731;28;20031;-79
2023/09/19 08:52:41;;;;;;;0.77;0.52;;;21.80;69.90;;;;;;4981268;28;20042;-80
2023/09/19 08:55:10;;;;;;;0.98;0.80;;;21.80;70.00;;;;;;4966270;28;20051;-80
2023/09/19 08:57:37;;;;;;;0.60;0.52;;;21.80;70.10;;;;;;4963908;28;20035;-79
2023/09/19 09:00:09;;;;;;;0.50;0.47;;;21.80;70.40;;;;;;4966656;28;20047;-80
2023/09/19 09:02:36;;;;;;;0.75;0.70;;;21.80;70.20;;;;;;4964780;28;20039;-80
2023/09/19 09:05:02;;;;;;;0.75;0.57;;;21.90;69.90;;;;;;4966972;28;20060;-80
2023/09/19 09:07:29;;;;;;;0.73;0.52;;;21.90;69.70;;;;;;4964663;28;20567;-79
2023/09/19 09:09:55;;;;;;;1.17;0.52;;;22.00;69.50;;;;;;4965119;28;20090;-80
2023/09/19 09:12:20;;;;;;;1.52;0.60;;;22.00;69.50;;;;;;4966234;28;20027;-79
2023/09/19 09:14:49;;;;;;;0.82;0.60;;;22.00;69.50;;;;;;4964262;28;20030;-80
2023/09/19 09:17:16;;;;;;;1.77;0.70;;;22.10;69.50;;;;;;4965700;28;20413;-79
2023/09/19 09:19:42;;;;;;;0.73;0.60;;;22.10;69.50;;;;;;4964648;28;20098;-79
2023/09/19 09:22:11;;;;;;;1.08;0.65;;;22.10;69.40;;;;;;4966829;28;20037;-79
2023/09/19 09:24:39;;;;;;;0.65;0.60;;;22.10;69.40;;;;;;4957072;28;20201;-79
2023/09/19 09:27:07;;;;;;;0.85;0.60;;;22.10;69.40;;;;;;4963788;28;20390;-79
2023/09/19 09:29:43;;;;;;;0.77;0.50;;;22.10;69.40;;;;;;4966686;28;20047;-79
2023/09/19 09:32:35;;;;;;;1.08;0.60;;;22.10;69.40;;;;;;4965590;28;20075;-79
2023/09/19 09:35:01;;;;;;;1.05;0.43;;;22.10;69.50;;;;;;4964700;28;20058;-80
2023/09/19 09:37:30;;;;;;;0.70;0.70;;;22.20;69.60;;;;;;4963652;28;20133;-81
2023/09/19 09:40:18;;;;;;;0.85;0.70;;;22.20;69.50;;;;;;4964668;28;20050;-80
2023/09/19 09:42:46;;;;;;;0.77;0.60;;;22.20;69.30;;;;;;4961740;28;20042;-80
2023/09/19 09:48:14;;;;;;;0.88;0.60;;;22.20;69.50;;;;;;4952729;28;20043;-79
2023/09/19 09:50:51;;;;;;;0.80;0.75;;;22.20;69.50;;;;;;4966340;28;20049;-79
2023/09/19 09:53:45;;;;;;;0.63;0.50;;;22.20;69.60;;;;;;4965182;28;20593;-79
2023/09/19 09:56:13;;;;;;;1.38;0.60;;;22.20;69.60;;;;;;4965836;28;20385;-79
2023/09/19 09:58:54;;;;;;;0.63;0.50;;;22.20;69.60;;;;;;4964740;28;20050;-80
2023/09/19 10:01:20;;;;;;;0.50;0.50;;;22.20;69.70;;;;;;4965735;28;20043;-79
2023/09/19 10:03:48;;;;;;;0.60;0.50;;;22.20;69.70;;;;;;4969764;28;20043;-81
2023/09/19 10:09:11;;;;;;;1.00;0.73;;;22.20;69.60;;;;;;4966088;28;20047;-79
2023/09/19 10:11:43;;;;;;;0.50;0.50;;;22.30;69.70;;;;;;4968464;28;20070;-78
2023/09/19 10:14:10;;;;;;;0.52;0.50;;;22.30;69.80;;;;;;4967845;28;20472;-80
2023/09/19 10:16:36;;;;;;;0.60;0.50;;;22.30;70.00;;;;;;4948886;28;20105;-81
2023/09/19 10:19:02;;;;;;;0.90;0.60;;;22.30;70.00;;;;;;4966895;28;20046;-81
2023/09/19 10:21:29;;;;;;;0.98;0.60;;;22.30;69.80;;;;;;4965955;28;20524;-81
2023/09/19 10:23:59;;;;;;;0.98;0.52;;;22.30;69.90;;;;;;4967158;28;20121;-81
2023/09/19 10:26:26;;;;;;;0.63;0.50;;;22.30;70.10;;;;;;4967662;28;20055;-80
2023/09/19 10:28:53;;;;;;;3.83;0.57;;;22.40;70.10;;;;;;4967765;28;20058;-81
2023/09/19 10:31:19;;;;;;;0.65;0.50;;;22.40;70.20;;;;;;4966212;28;20035;-78
2023/09/19 10:33:45;;;;;;;1.05;0.73;;;22.40;70.10;;;;;;4965835;28;20431;-79
2023/09/19 10:36:12;;;;;;;1.85;1.25;;;22.40;70.10;;;;;;4966468;28;20034;-81
2023/09/19 10:38:40;;;;;;;1.38;1.27;;;22.40;71.20;;;;;;4968654;28;20058;-80
2023/09/19 10:41:06;;;;;;;1.58;1.48;;;22.40;71.50;;;;;;4968247;28;20047;-79
2023/09/19 10:43:32;;;;;;;1.70;1.60;;;22.40;71.50;;;;;;4966892;28;20047;-78
2023/09/19 10:46:06;;;;;;;1.23;0.93;;;22.40;71.00;;;;;;4968352;28;20074;-79
2023/09/19 10:48:31;;;;;;;1.23;1.02;;;22.40;71.00;;;;;;4975273;28;20042;-78
2023/09/19 10:51:09;;;;;;;1.30;1.20;;;22.50;70.80;;;;;;4978491;28;20041;-80
2023/09/19 10:53:58;;;;;;;1.13;1.00;;;22.50;71.80;;;;;;4966930;28;20051;-81
2023/09/19 10:56:32;;;;;;;88.07;40.20;;;22.50;72.20;;;;;;4965942;28;20093;-81
2023/09/19 10:59:14;;;;;;;68.70;34.90;;;22.60;72.50;;;;;;4964459;28;20509;-84
2023/09/19 11:01:47;;;;;;;45.53;21.50;;;22.50;70.90;;;;;;4966225;28;20038;-83
2023/09/19 11:04:31;;;;;;;27.33;15.82;;;22.60;72.00;;;;;;4966248;28;20126;-83
2023/09/19 11:07:14;;;;;;;21.75;11.25;;;22.60;71.10;;;;;;4966416;28;20608;-82
2023/09/19 11:09:57;;;;;;;16.85;8.00;;;22.60;70.60;;;;;;4966276;28;20475;-81
2023/09/19 11:15:07;;;;;;;7.80;3.95;;;22.50;65.90;;;;;;4965007;28;20426;-79
2023/09/19 11:17:46;;;;;;;5.10;4.43;;;22.50;66.50;;;;;;4965410;28;20042;-78
2023/09/19 11:22:51;;;;;;;6.55;3.85;;;22.60;66.70;;;;;;4967311;28;20097;-79
2023/09/19 11:25:47;;;;;;;6.57;4.25;;;22.60;66.80;;;;;;4968738;28;20416;-78
2023/09/19 11:28:16;;;;;;;7.13;3.60;;;22.60;66.40;;;;;;4963929;28;20057;-79
2023/09/19 11:30:43;;;;;;;7.40;4.15;;;22.60;66.50;;;;;;4961049;28;20035;-79
2023/09/19 11:33:36;;;;;;;4.85;3.53;;;22.60;66.40;;;;;;4965554;28;20050;-79
2023/09/19 11:36:14;;;;;;;5.10;3.08;;;22.70;66.90;;;;;;4968412;28;20068;-79
2023/09/19 11:38:49;;;;;;;7.63;3.50;;;22.70;67.10;;;;;;4965511;28;20050;-80
2023/09/19 11:41:27;;;;;;;5.40;3.30;;;22.70;67.60;;;;;;4967394;28;20042;-79
2023/09/19 11:44:09;;;;;;;5.95;3.60;;;22.70;68.00;;;;;;4967420;28;20138;-80
2023/09/19 11:46:48;;;;;;;6.05;3.47;;;22.70;68.30;;;;;;4962889;28;20055;-80
2023/09/19 11:49:15;;;;;;;7.15;3.90;;;22.70;68.60;;;;;;4966772;28;20047;-79
2023/09/19 11:51:43;;;;;;;4.60;3.15;;;22.70;68.80;;;;;;4965137;28;20066;-79
2023/09/19 11:54:15;;;;;;;6.72;3.92;;;22.70;68.80;;;;;;4965630;28;20073;-80
2023/09/19 11:56:41;;;;;;;6.45;3.42;;;22.70;68.80;;;;;;4965654;28;20059;-79
2023/09/19 11:59:08;;;;;;;6.15;3.47;;;22.70;69.00;;;;;;4964330;28;20053;-79
2023/09/19 12:01:34;;;;;;;3.95;3.20;;;22.70;69.00;;;;;;4967412;28;20059;-79
2023/09/19 12:04:01;;;;;;;4.35;3.03;;;22.70;68.90;;;;;;4966133;28;20043;-79
2023/09/19 12:06:29;;;;;;;5.15;3.53;;;22.70;69.10;;;;;;4967593;28;20051;-79
2023/09/19 12:08:57;;;;;;;4.53;3.28;;;22.70;69.20;;;;;;4966921;28;20058;-79
2023/09/19 12:11:26;;;;;;;4.45;2.72;;;22.80;69.30;;;;;;4964340;28;20418;-80
2023/09/19 12:13:53;;;;;;;5.57;3.17;;;22.70;69.40;;;;;;4967088;28;20046;-80
2023/09/19 12:16:21;;;;;;;4.65;3.30;;;22.70;69.00;;;;;;4965900;28;20038;-80
2023/09/19 12:18:47;;;;;;;3.30;2.97;;;22.70;69.10;;;;;;4963310;28;20057;-80
2023/09/19 12:21:31;;;;;;;4.13;3.13;;;22.70;69.00;;;;;;4965505;28;20039;-80
2023/09/19 12:24:04;;;;;;;5.00;3.13;;;22.70;69.20;;;;;;4967229;28;20129;-80
2023/09/19 12:26:33;;;;;;;5.53;2.92;;;22.80;69.20;;;;;;4965827;28;20058;-79
2023/09/19 12:29:01;;;;;;;4.03;2.65;;;22.70;69.20;;;;;;4950646;28;20042;-79
2023/09/19 12:31:27;;;;;;;4.22;3.28;;;22.80;69.20;;;;;;4967967;28;20043;-79
2023/09/19 12:33:55;;;;;;;4.10;3.17;;;22.70;69.30;;;;;;4966983;28;20062;-79
2023/09/19 12:36:30;;;;;;;3.95;2.78;;;22.70;69.20;;;;;;4967776;28;20121;-79
2023/09/19 12:38:59;;;;;;;6.20;2.90;;;22.70;69.30;;;;;;4963522;28;20034;-80
2023/09/19 12:41:25;;;;;;;3.22;2.55;;;22.70;69.40;;;;;;4967426;28;20093;-79
2023/09/19 12:43:53;;;;;;;2.92;2.63;;;22.70;69.40;;;;;;4965661;28;20078;-79
2023/09/19 12:46:25;;;;;;;3.03;2.60;;;22.70;69.40;;;;;;4963746;28;20054;-79
2023/09/19 12:49:17;;;;;;;2.80;2.25;;;22.70;69.40;;;;;;4963703;28;20469;-80
2023/09/19 12:51:43;;;;;;;4.55;2.90;;;22.70;69.50;;;;;;4963915;28;21106;-79
2023/09/19 12:54:10;;;;;;;4.78;3.10;;;22.70;69.50;;;;;;4965040;28;20089;-79
2023/09/19 12:56:47;;;;;;;3.33;2.63;;;22.70;69.50;;;;;;4962840;28;20054;-80
2023/09/19 12:59:13;;;;;;;3.30;2.38;;;22.70;69.50;;;;;;4965789;28;20038;-79
2023/09/19 13:01:46;;;;;;;4.53;2.50;;;22.70;69.60;;;;;;4965825;28;20065;-79
2023/09/19 13:04:29;;;;;;;3.27;2.40;;;22.70;69.60;;;;;;4964801;28;20101;-79